To NAV CANADA Home Page Login to a new session Search on AWWS site Disclaimer Vers la page française équivalente Tips FAQ What's new on the site To the Forecasts and Observations / NOTAM section To "File a Flight Plan" website Publications and other links Update of the User's profile FIC Telephone Numbers My Weather Data Folder Route Weather Data Regional Weather Data Local Weather Data To the Forecasts and Observations / NOTAM section
Request Generated 08/19/2022 at 02:00:04 UTC . Weather information available at that time is displayed.

METAR/TAF

TORONTO/LESTER B. PEARSON INTL/ON    

METAR CYYZ 190100Z 35007KT 15SM FEW060 FEW070 SCT230 25/14 A2993 RMK SC1AC1CI2 SLP136 DENSITY ALT 1900FT=
METAR CYYZ 190000Z 02004KT 330V040 15SM SCT074 BKN220 26/13 A2992 RMK AC3CI3 SLP131 DENSITY ALT 2000FT=
METAR CYYZ 182300Z 35008KT 15SM FEW065TCU SCT070 SCT120 BKN220 27/13 A2991 RMK TCU1AC2AC1CI2 TCU E SLP130 DENSITY ALT 2100FT=

TAF AMD CYYZ 190016Z 1900/2006 02005KT P6SM SCT060 BKN200
FM190300 VRB03KT P6SM SKC
BECMG 1913/1915 22010KT
FM191700 22012KT P6SM BKN060 TEMPO 1917/2001 P6SM -SHRA
FM200100 VRB03KT P6SM FEW060
RMK NXT FCST BY 190300Z=
Your time UTC time
Weather data provided by Environment Canada and NAV CANADA